Time;durP1;ratioP1;P1;durP2;ratioP2;P2;SDS_P1;SDS_P2;PMS_P1;PMS_P2;Temp;Humidity;BMP_temperature;BMP_pressure;BME280_temperature;BME280_humidity;BME280_pressure;Samples;Min_cycle;Max_cycle;Signal;HPM_P1;HPM_P2
2022/05/09 00:00:31;;;;;;;4.90;3.00;;;12.70;99.90;;;;;;5069477;28;20192;-42
2022/05/09 00:02:57;;;;;;;4.87;3.50;;;12.60;99.90;;;;;;5069525;28;20208;-42
2022/05/09 00:05:26;;;;;;;3.83;3.20;;;12.60;99.90;;;;;;5069992;28;20419;-40
2022/05/09 00:07:52;;;;;;;6.33;3.47;;;12.60;99.90;;;;;;5069674;28;20430;-42
2022/05/09 00:10:21;;;;;;;9.00;3.53;;;12.60;99.90;;;;;;5069244;28;20462;-42
2022/05/09 00:12:47;;;;;;;4.83;2.90;;;12.60;99.90;;;;;;5059468;28;21059;-42
2022/05/09 00:15:14;;;;;;;3.60;3.10;;;12.50;99.90;;;;;;5069782;28;21402;-41
2022/05/09 00:17:40;;;;;;;5.63;3.60;;;12.40;99.90;;;;;;5069562;28;20546;-42
2022/05/09 00:20:06;;;;;;;5.87;4.07;;;12.40;99.90;;;;;;5069059;28;20943;-42
2022/05/09 00:22:44;;;;;;;5.23;3.97;;;12.50;99.90;;;;;;5069517;28;20181;-42
2022/05/09 00:25:10;;;;;;;6.77;4.13;;;12.40;99.90;;;;;;5068504;28;20422;-42
2022/05/09 00:27:35;;;;;;;7.63;4.60;;;12.40;99.90;;;;;;5057166;28;20436;-43
2022/05/09 00:30:01;;;;;;;6.83;4.87;;;12.40;99.90;;;;;;5068745;28;20270;-41
2022/05/09 00:32:27;;;;;;;5.37;4.57;;;12.30;99.90;;;;;;5069281;28;20205;-41
2022/05/09 00:34:53;;;;;;;6.90;5.97;;;12.40;99.90;;;;;;5069230;28;20280;-42
2022/05/09 00:37:19;;;;;;;5.70;5.00;;;12.50;99.90;;;;;;5084971;28;20515;-42
2022/05/09 00:39:46;;;;;;;5.23;4.47;;;12.40;99.90;;;;;;5081178;28;20279;-42
2022/05/09 00:42:13;;;;;;;6.90;5.23;;;12.40;99.90;;;;;;5070320;28;20475;-42
2022/05/09 00:44:40;;;;;;;5.33;4.83;;;12.30;99.90;;;;;;5067170;28;20825;-42
2022/05/09 00:47:06;;;;;;;9.03;5.53;;;12.30;99.90;;;;;;5069316;28;20427;-43
2022/05/09 00:49:45;;;;;;;5.23;4.73;;;12.20;99.90;;;;;;5069033;28;21147;-40
2022/05/09 00:52:19;;;;;;;8.37;5.20;;;12.30;99.90;;;;;;5069085;28;20447;-42
2022/05/09 00:54:52;;;;;;;6.17;4.87;;;12.20;99.90;;;;;;5068963;28;21002;-43
2022/05/09 00:57:19;;;;;;;5.80;5.20;;;12.20;99.90;;;;;;5058064;28;20980;-42
2022/05/09 00:59:47;;;;;;;7.53;5.57;;;12.10;99.90;;;;;;5082409;28;20963;-40
2022/05/09 01:02:15;;;;;;;5.37;4.70;;;12.00;99.90;;;;;;5068981;28;20430;-43
2022/05/09 01:04:54;;;;;;;9.03;5.40;;;12.00;99.90;;;;;;5068588;28;20843;-42
2022/05/09 01:07:22;;;;;;;9.97;5.27;;;12.00;99.90;;;;;;5067389;28;20430;-40
2022/05/09 01:09:48;;;;;;;6.30;5.30;;;11.90;99.90;;;;;;5067832;28;20459;-41
2022/05/09 01:12:18;;;;;;;6.77;5.47;;;11.80;99.90;;;;;;5060658;28;20798;-43
2022/05/09 01:14:44;;;;;;;8.10;5.40;;;11.80;99.90;;;;;;5068277;28;20778;-43
2022/05/09 01:17:11;;;;;;;9.40;4.90;;;11.80;99.90;;;;;;5068734;28;20447;-41
2022/05/09 01:19:43;;;;;;;7.60;5.13;;;11.90;99.90;;;;;;5066750;28;20258;-40
2022/05/09 01:22:25;;;;;;;8.30;5.93;;;11.80;99.90;;;;;;5068809;28;20431;-42
2022/05/09 01:24:54;;;;;;;8.80;5.37;;;11.70;99.90;;;;;;5068639;28;20472;-42
2022/05/09 01:27:20;;;;;;;8.83;5.17;;;11.70;99.90;;;;;;5061445;28;20531;-43
2022/05/09 01:29:56;;;;;;;7.43;4.90;;;11.70;99.90;;;;;;5058256;28;20446;-42
2022/05/09 01:32:34;;;;;;;9.13;4.80;;;11.50;99.90;;;;;;5068765;28;20426;-42
2022/05/09 01:35:07;;;;;;;8.30;5.70;;;11.50;99.90;;;;;;5068556;28;20433;-42
2022/05/09 01:37:35;;;;;;;14.93;4.90;;;11.50;99.90;;;;;;5068622;28;20477;-42
2022/05/09 01:40:00;;;;;;;11.07;5.43;;;11.40;99.90;;;;;;5083059;28;20418;-42
2022/05/09 01:42:26;;;;;;;5.10;4.60;;;11.50;99.90;;;;;;5072440;28;20442;-42
2022/05/09 01:44:52;;;;;;;9.70;4.97;;;11.50;99.90;;;;;;5064274;28;20881;-42
2022/05/09 01:50:02;;;;;;;5.80;4.30;;;11.60;99.90;;;;;;5067600;28;20224;-43
2022/05/09 01:52:28;;;;;;;7.00;4.67;;;11.60;99.90;;;;;;5068384;28;20922;-42
2022/05/09 01:54:54;;;;;;;5.93;5.33;;;11.70;99.90;;;;;;5067882;28;20442;-41
2022/05/09 01:57:19;;;;;;;8.00;4.47;;;11.60;99.90;;;;;;5061320;28;20205;-43
2022/05/09 01:59:45;;;;;;;5.97;4.80;;;11.70;99.90;;;;;;5066502;28;20968;-42
2022/05/09 02:02:17;;;;;;;7.33;4.70;;;11.60;99.90;;;;;;5068264;28;20197;-41
2022/05/09 02:04:42;;;;;;;7.00;4.90;;;11.60;99.90;;;;;;5067048;28;20423;-42
2022/05/09 02:07:10;;;;;;;9.93;5.10;;;11.60;99.90;;;;;;5068132;28;20814;-42
2022/05/09 02:09:44;;;;;;;7.57;4.97;;;11.60;99.90;;;;;;5067894;28;20212;-41
2022/05/09 02:12:11;;;;;;;6.27;4.43;;;11.50;99.90;;;;;;5045925;28;20443;-43
2022/05/09 02:14:37;;;;;;;6.40;4.50;;;11.50;99.90;;;;;;5061056;28;20419;-41
2022/05/09 02:17:05;;;;;;;5.27;4.80;;;11.50;99.90;;;;;;5068165;28;20426;-42
2022/05/09 02:19:31;;;;;;;9.33;5.00;;;11.50;99.90;;;;;;5068207;28;20447;-43
2022/05/09 02:21:57;;;;;;;7.63;4.70;;;11.60;99.90;;;;;;5070967;28;20806;-43
2022/05/09 02:24:23;;;;;;;6.47;4.30;;;11.50;99.90;;;;;;5071616;28;20435;-42
2022/05/09 02:26:49;;;;;;;7.47;4.70;;;11.50;99.90;;;;;;5070752;28;20197;-42
2022/05/09 02:29:15;;;;;;;7.40;5.70;;;11.40;99.90;;;;;;5069557;28;20469;-43
2022/05/09 02:31:41;;;;;;;5.10;4.47;;;11.40;99.90;;;;;;5071096;28;20427;-41
2022/05/09 02:34:08;;;;;;;9.43;5.23;;;11.30;99.90;;;;;;5058272;28;20213;-40
2022/05/09 02:36:34;;;;;;;6.40;4.73;;;11.30;99.90;;;;;;5071535;28;20427;-39
2022/05/09 02:39:00;;;;;;;7.93;4.83;;;11.20;99.90;;;;;;5076505;28;20480;-42
2022/05/09 02:41:26;;;;;;;6.40;4.90;;;11.30;99.90;;;;;;5091657;28;20238;-43
2022/05/09 02:43:51;;;;;;;8.70;4.87;;;11.20;99.90;;;;;;5068078;28;20185;-42
2022/05/09 02:46:17;;;;;;;7.47;5.23;;;11.20;99.90;;;;;;5071575;28;20518;-42
2022/05/09 02:48:43;;;;;;;7.90;4.90;;;11.10;99.90;;;;;;5071089;28;20243;-41
2022/05/09 02:51:09;;;;;;;9.03;6.30;;;11.20;99.90;;;;;;5069256;28;20195;-42
2022/05/09 02:53:35;;;;;;;10.53;5.00;;;11.10;99.90;;;;;;5071149;28;20917;-42
2022/05/09 02:56:02;;;;;;;8.70;4.90;;;11.20;99.90;;;;;;5071334;28;20548;-42
2022/05/09 02:58:28;;;;;;;6.03;5.10;;;11.10;99.90;;;;;;5065960;28;20497;-40
2022/05/09 03:00:54;;;;;;;7.77;5.20;;;11.00;99.90;;;;;;5070454;28;20428;-43
2022/05/09 03:06:04;;;;;;;6.83;4.50;;;11.00;99.90;;;;;;5070786;28;20238;-42
2022/05/09 03:08:30;;;;;;;8.63;5.00;;;11.00;99.90;;;;;;5070952;28;20759;-42
2022/05/09 03:10:56;;;;;;;5.43;4.93;;;11.20;99.90;;;;;;5070275;28;20432;-41
2022/05/09 03:13:22;;;;;;;8.33;4.90;;;10.90;99.90;;;;;;5063340;28;20438;-41
2022/05/09 03:15:49;;;;;;;7.80;5.30;;;11.20;99.90;;;;;;5069770;28;20458;-42
2022/05/09 03:18:17;;;;;;;9.63;6.33;;;10.90;99.90;;;;;;5070689;28;20499;-41
2022/05/09 03:20:44;;;;;;;8.17;5.40;;;11.10;99.90;;;;;;5070139;28;20428;-43
2022/05/09 03:23:10;;;;;;;12.40;5.93;;;11.00;99.90;;;;;;5070774;28;20441;-42
2022/05/09 03:25:38;;;;;;;10.43;5.07;;;11.00;99.90;;;;;;5069251;28;20427;-41
2022/05/09 03:28:06;;;;;;;6.50;4.83;;;11.10;99.90;;;;;;5065204;28;20436;-42
2022/05/09 03:30:32;;;;;;;7.87;5.40;;;11.10;99.90;;;;;;5066089;28;20454;-43
2022/05/09 03:32:58;;;;;;;8.90;5.20;;;11.00;99.90;;;;;;5069295;28;20424;-41
2022/05/09 03:35:24;;;;;;;7.53;5.17;;;11.00;99.90;;;;;;5070557;28;20431;-43
2022/05/09 03:37:50;;;;;;;7.07;5.10;;;11.00;99.90;;;;;;5070450;28;20185;-42
2022/05/09 03:40:18;;;;;;;7.57;5.80;;;10.90;99.90;;;;;;5086809;28;20186;-41
2022/05/09 03:42:44;;;;;;;9.50;5.43;;;10.80;99.90;;;;;;5083092;28;20182;-41
2022/05/09 03:45:11;;;;;;;6.80;4.90;;;10.80;99.90;;;;;;5066295;28;20819;-43
2022/05/09 03:47:36;;;;;;;7.30;5.80;;;10.90;99.90;;;;;;5070357;28;20449;-43
2022/05/09 03:50:03;;;;;;;6.77;5.40;;;10.90;99.90;;;;;;5069561;28;20462;-43
2022/05/09 03:52:28;;;;;;;9.10;5.97;;;10.80;99.90;;;;;;5070021;28;20196;-43
2022/05/09 03:54:57;;;;;;;11.73;5.70;;;10.80;99.90;;;;;;5070089;28;20412;-39
2022/05/09 03:57:23;;;;;;;6.40;5.73;;;10.70;99.90;;;;;;5070040;28;20219;-42
2022/05/09 03:59:49;;;;;;;7.00;4.70;;;10.80;99.90;;;;;;5059681;28;21173;-42
2022/05/09 04:02:15;;;;;;;7.40;5.90;;;10.50;99.90;;;;;;5069761;28;20435;-40
2022/05/09 04:04:41;;;;;;;8.03;5.40;;;10.60;99.90;;;;;;5069780;28;20427;-43
2022/05/09 04:07:07;;;;;;;7.83;6.03;;;10.60;99.90;;;;;;5069924;28;20522;-43
2022/05/09 04:09:32;;;;;;;9.63;6.50;;;10.70;99.90;;;;;;5069330;28;20557;-43
2022/05/09 04:11:58;;;;;;;8.50;5.70;;;10.50;99.90;;;;;;5069517;28;20184;-42
2022/05/09 04:17:11;;;;;;;9.10;5.73;;;10.60;99.90;;;;;;5063254;28;20181;-42
2022/05/09 04:19:38;;;;;;;6.83;5.80;;;10.50;99.90;;;;;;5069079;28;20450;-42
2022/05/09 04:22:04;;;;;;;7.60;6.30;;;10.50;99.90;;;;;;5069518;28;20420;-42
2022/05/09 04:24:30;;;;;;;9.23;5.70;;;10.50;99.90;;;;;;5069538;28;20425;-43
2022/05/09 04:27:00;;;;;;;6.70;5.63;;;10.50;99.90;;;;;;5067960;28;20188;-42
2022/05/09 04:29:27;;;;;;;7.87;5.80;;;10.50;99.90;;;;;;5055545;28;20479;-43
2022/05/09 04:31:52;;;;;;;8.60;6.00;;;10.40;99.90;;;;;;5068548;28;20514;-43
2022/05/09 04:34:18;;;;;;;11.57;6.20;;;10.40;99.90;;;;;;5069238;28;20512;-37
2022/05/09 04:36:44;;;;;;;7.03;5.73;;;10.40;99.90;;;;;;5069411;28;20770;-42
2022/05/09 04:39:10;;;;;;;9.40;6.63;;;10.40;99.90;;;;;;5076159;28;20251;-42
2022/05/09 04:41:36;;;;;;;7.80;5.83;;;10.50;99.90;;;;;;5072220;28;20531;-43
2022/05/09 04:44:06;;;;;;;9.50;5.70;;;10.50;99.90;;;;;;5055589;28;20445;-39
2022/05/09 04:46:33;;;;;;;6.03;5.50;;;10.40;99.90;;;;;;5066073;28;20189;-40
2022/05/09 04:48:58;;;;;;;9.47;5.93;;;10.50;99.90;;;;;;5069059;28;20530;-41
2022/05/09 04:51:24;;;;;;;7.37;6.27;;;10.70;99.90;;;;;;5068438;28;20547;-42
2022/05/09 04:53:50;;;;;;;6.70;6.00;;;10.80;99.90;;;;;;5068987;28;20189;-42
2022/05/09 04:56:17;;;;;;;13.10;6.93;;;10.70;99.90;;;;;;5069241;28;20453;-43
2022/05/09 04:58:42;;;;;;;7.87;6.10;;;10.90;99.90;;;;;;5062541;28;20185;-42
2022/05/09 05:01:09;;;;;;;8.00;6.53;;;11.10;99.90;;;;;;5062609;28;20481;-42
2022/05/09 05:03:35;;;;;;;7.77;6.23;;;11.30;99.90;;;;;;5068822;28;20177;-42
2022/05/09 05:06:01;;;;;;;9.17;7.57;;;11.20;99.90;;;;;;5068803;28;20915;-41
2022/05/09 05:08:33;;;;;;;13.20;6.70;;;11.10;99.90;;;;;;5068712;28;20426;-41
2022/05/09 05:11:01;;;;;;;7.63;5.80;;;11.20;99.90;;;;;;5067161;28;20510;-42
2022/05/09 05:13:27;;;;;;;9.00;6.60;;;11.40;99.90;;;;;;5063415;28;20429;-41
2022/05/09 05:15:55;;;;;;;8.40;6.73;;;11.50;99.90;;;;;;5068257;28;20426;-43
2022/05/09 05:18:23;;;;;;;8.50;5.97;;;11.60;99.90;;;;;;5067559;28;20416;-42
2022/05/09 05:20:49;;;;;;;7.47;6.63;;;11.50;99.90;;;;;;5066758;28;21086;-43
2022/05/09 05:23:16;;;;;;;9.00;6.40;;;11.50;99.90;;;;;;5068723;28;20419;-43
2022/05/09 05:25:45;;;;;;;7.27;6.57;;;11.50;99.90;;;;;;5067259;28;21426;-42
2022/05/09 05:28:11;;;;;;;11.20;6.97;;;11.60;99.90;;;;;;5065542;28;20466;-43
2022/05/09 05:30:37;;;;;;;7.77;6.97;;;11.50;99.90;;;;;;5057926;28;20466;-42
2022/05/09 05:33:04;;;;;;;9.83;7.20;;;11.60;99.90;;;;;;5068801;28;20476;-42
2022/05/09 05:35:31;;;;;;;8.87;7.93;;;11.60;99.90;;;;;;5068264;28;20427;-41
2022/05/09 05:37:57;;;;;;;9.20;7.40;;;11.70;99.90;;;;;;5068736;28;20455;-42
2022/05/09 05:40:22;;;;;;;9.53;7.40;;;11.50;99.90;;;;;;5084804;28;20477;-43
2022/05/09 05:42:49;;;;;;;10.73;6.70;;;11.70;99.90;;;;;;5088704;28;20499;-43
2022/05/09 05:45:17;;;;;;;9.17;7.07;;;11.70;99.90;;;;;;5061778;28;20201;-41
2022/05/09 05:47:43;;;;;;;8.43;7.63;;;11.80;99.90;;;;;;5066355;28;20771;-43
2022/05/09 05:50:11;;;;;;;8.80;7.00;;;11.90;99.90;;;;;;5068475;28;20489;-43
2022/05/09 05:52:37;;;;;;;8.23;7.37;;;12.00;99.90;;;;;;5065388;28;20268;-41
2022/05/09 05:55:03;;;;;;;9.80;7.80;;;12.20;99.90;;;;;;5079592;28;20522;-43
2022/05/09 05:57:32;;;;;;;10.80;7.70;;;12.40;99.90;;;;;;5073492;28;20443;-43
2022/05/09 06:00:02;;;;;;;17.23;7.90;;;12.60;99.90;;;;;;5063493;28;20473;-40
2022/05/09 06:02:28;;;;;;;10.63;7.77;;;12.80;99.90;;;;;;5068464;28;20423;-42
2022/05/09 06:04:54;;;;;;;14.23;7.57;;;13.10;99.90;;;;;;5066004;28;20427;-41
2022/05/09 06:07:22;;;;;;;10.17;7.27;;;13.40;99.90;;;;;;5064278;28;20446;-43
2022/05/09 06:09:49;;;;;;;10.10;7.20;;;13.60;99.90;;;;;;5067278;28;20474;-42
2022/05/09 06:12:16;;;;;;;9.70;6.93;;;13.70;99.90;;;;;;5068227;28;20438;-42
2022/05/09 06:14:42;;;;;;;8.50;7.00;;;13.90;99.90;;;;;;5067323;28;20492;-42
2022/05/09 06:17:10;;;;;;;14.90;7.20;;;14.10;99.90;;;;;;5074594;28;20450;-42
2022/05/09 06:19:36;;;;;;;8.27;6.90;;;14.10;99.90;;;;;;5066089;28;20193;-43
2022/05/09 06:22:02;;;;;;;13.43;8.20;;;14.20;99.90;;;;;;5065769;28;20498;-40
2022/05/09 06:24:28;;;;;;;15.47;8.70;;;14.30;99.90;;;;;;5069688;28;20435;-43
2022/05/09 06:26:54;;;;;;;10.10;7.50;;;14.50;99.90;;;;;;5071782;28;20196;-42
2022/05/09 06:29:19;;;;;;;8.83;7.60;;;14.70;99.90;;;;;;5060432;28;20468;-42
2022/05/09 06:31:45;;;;;;;9.10;7.43;;;14.80;99.90;;;;;;5061503;28;20207;-42
2022/05/09 06:34:13;;;;;;;10.73;8.17;;;14.80;99.90;;;;;;5065812;28;20196;-42
2022/05/09 06:36:40;;;;;;;12.40;7.37;;;15.00;99.90;;;;;;5070615;28;20439;-41
2022/05/09 06:39:08;;;;;;;7.87;6.53;;;15.10;99.90;;;;;;5076953;28;20433;-42
2022/05/09 06:41:34;;;;;;;8.80;7.20;;;15.30;99.90;;;;;;5089803;28;20422;-43
2022/05/09 06:43:59;;;;;;;9.87;7.63;;;15.40;99.90;;;;;;5068217;28;20451;-40
2022/05/09 06:46:26;;;;;;;10.60;7.37;;;15.60;99.90;;;;;;5069994;28;20218;-43
2022/05/09 06:48:51;;;;;;;9.40;7.93;;;15.70;99.90;;;;;;5081871;28;20208;-42
2022/05/09 06:51:17;;;;;;;11.50;7.83;;;15.80;99.90;;;;;;5088003;28;20507;-43
2022/05/09 06:53:44;;;;;;;13.13;7.40;;;15.90;99.90;;;;;;5084286;28;20192;-43
2022/05/09 06:56:10;;;;;;;10.13;8.40;;;15.90;99.90;;;;;;5079238;28;20193;-41
2022/05/09 06:58:37;;;;;;;10.37;7.73;;;16.00;99.90;;;;;;5081194;28;20894;-41
2022/05/09 07:01:20;;;;;;;14.03;7.83;;;16.10;99.90;;;;;;5075127;28;20810;-42
2022/05/09 07:03:47;;;;;;;8.60;7.23;;;16.10;99.90;;;;;;5077596;28;20516;-42
2022/05/09 07:06:13;;;;;;;8.90;6.47;;;16.20;99.90;;;;;;5071280;28;20427;-42
2022/05/09 07:08:39;;;;;;;11.10;6.73;;;16.30;99.90;;;;;;5071196;28;20423;-41
2022/05/09 07:11:06;;;;;;;10.00;6.97;;;16.30;99.90;;;;;;5070249;28;20431;-42
2022/05/09 07:13:31;;;;;;;10.20;6.40;;;16.40;99.90;;;;;;5070689;28;20181;-42
2022/05/09 07:15:57;;;;;;;9.00;6.33;;;16.50;99.90;;;;;;5065758;28;20442;-42
2022/05/09 07:18:28;;;;;;;7.60;6.53;;;16.60;99.90;;;;;;5070935;28;20249;-41
2022/05/09 07:20:56;;;;;;;11.80;6.10;;;16.70;99.90;;;;;;5070010;28;20861;-40
2022/05/09 07:23:22;;;;;;;11.03;6.67;;;16.70;99.90;;;;;;5069506;28;20557;-41
2022/05/09 07:25:50;;;;;;;8.20;6.50;;;16.80;99.90;;;;;;5070574;28;20431;-42
2022/05/09 07:28:19;;;;;;;9.27;5.80;;;16.80;99.60;;;;;;5070684;28;20434;-43
2022/05/09 07:30:46;;;;;;;9.37;6.73;;;16.90;99.40;;;;;;5063864;28;20996;-43
2022/05/09 07:33:14;;;;;;;9.07;6.10;;;17.00;99.50;;;;;;5070701;28;20771;-42
2022/05/09 07:35:42;;;;;;;8.00;5.30;;;17.10;99.50;;;;;;5076317;28;21033;-43
2022/05/09 07:38:08;;;;;;;5.77;5.17;;;17.20;99.90;;;;;;5072651;28;20817;-41
2022/05/09 07:40:34;;;;;;;8.27;5.90;;;17.30;99.50;;;;;;5082786;28;20450;-42
2022/05/09 07:42:59;;;;;;;7.20;5.40;;;17.40;99.50;;;;;;5070297;28;20431;-43
2022/05/09 07:45:25;;;;;;;7.73;5.20;;;17.40;99.60;;;;;;5063523;28;20194;-42
2022/05/09 07:47:51;;;;;;;11.10;6.67;;;17.40;99.70;;;;;;5067938;28;20263;-43
2022/05/09 07:50:17;;;;;;;6.60;5.20;;;17.40;99.50;;;;;;5069223;28;21023;-43
2022/05/09 07:52:44;;;;;;;6.63;5.70;;;17.40;99.70;;;;;;5069854;28;20188;-42
2022/05/09 07:55:15;;;;;;;10.80;5.93;;;17.40;99.90;;;;;;5069427;28;20431;-43
2022/05/09 07:57:41;;;;;;;7.03;4.80;;;17.50;99.90;;;;;;5069554;28;20523;-42
2022/05/09 08:00:07;;;;;;;8.03;6.17;;;17.50;99.90;;;;;;5064911;28;20986;-40
2022/05/09 08:02:33;;;;;;;9.03;5.60;;;17.60;99.90;;;;;;5084508;28;20177;-43
2022/05/09 08:05:00;;;;;;;9.27;6.17;;;17.70;99.90;;;;;;5062844;28;20481;-43
2022/05/09 08:07:25;;;;;;;8.90;5.37;;;17.60;99.90;;;;;;5068542;28;20415;-42
2022/05/09 08:09:51;;;;;;;7.67;5.57;;;17.50;99.90;;;;;;5068988;28;20447;-43
2022/05/09 08:12:17;;;;;;;14.90;5.77;;;17.50;99.90;;;;;;5069689;28;20189;-41
2022/05/09 08:14:43;;;;;;;8.73;6.10;;;17.60;99.90;;;;;;5064238;28;20186;-43
2022/05/09 08:17:09;;;;;;;6.83;5.97;;;17.50;99.90;;;;;;5062667;28;20239;-42
2022/05/09 08:19:37;;;;;;;8.23;6.20;;;17.50;99.90;;;;;;5068811;28;20423;-41
2022/05/09 08:22:04;;;;;;;8.87;6.30;;;17.60;99.90;;;;;;5069363;28;20829;-42
2022/05/09 08:24:30;;;;;;;10.10;6.70;;;17.70;99.90;;;;;;5069208;28;20459;-42
2022/05/09 08:26:56;;;;;;;9.63;5.97;;;17.60;99.90;;;;;;5069562;28;20462;-42
2022/05/09 08:29:22;;;;;;;8.60;5.63;;;17.60;99.90;;;;;;5068573;28;20461;-42
2022/05/09 08:31:47;;;;;;;7.17;6.03;;;17.70;99.90;;;;;;5063250;28;20227;-42
2022/05/09 08:34:15;;;;;;;8.67;5.63;;;17.70;99.90;;;;;;5069374;28;20423;-42
2022/05/09 08:36:53;;;;;;;6.80;6.10;;;17.80;99.90;;;;;;5084598;28;20173;-42
2022/05/09 08:39:20;;;;;;;9.77;6.43;;;17.90;99.90;;;;;;5078310;28;20470;-43
2022/05/09 08:41:51;;;;;;;7.70;6.93;;;18.00;99.90;;;;;;5087217;28;21012;-42
2022/05/09 08:44:57;;;;;;;8.47;6.53;;;18.10;99.90;;;;;;5089316;28;20418;-42
2022/05/09 08:47:49;;;;;;;9.00;7.00;;;18.20;99.90;;;;;;5056727;28;20455;-42
2022/05/09 08:50:31;;;;;;;6.37;5.77;;;18.20;99.90;;;;;;5067036;28;20484;-42
2022/05/09 08:53:08;;;;;;;7.80;6.07;;;18.30;99.90;;;;;;5069251;28;20423;-43
2022/05/09 08:55:40;;;;;;;8.00;7.30;;;18.50;99.90;;;;;;5068880;28;20415;-43
2022/05/09 08:58:27;;;;;;;11.17;6.43;;;18.50;99.90;;;;;;5069072;28;20945;-42
2022/05/09 09:00:54;;;;;;;7.97;7.17;;;18.60;99.90;;;;;;5057854;28;20468;-42
2022/05/09 09:03:31;;;;;;;9.47;7.20;;;18.70;99.90;;;;;;5068274;28;20929;-43
2022/05/09 09:06:09;;;;;;;8.30;6.50;;;18.80;99.90;;;;;;5066522;28;20455;-42
2022/05/09 09:08:58;;;;;;;10.33;6.70;;;18.90;99.90;;;;;;5084411;28;20427;-42
2022/05/09 09:12:01;;;;;;;8.03;6.90;;;19.00;99.90;;;;;;5068283;28;20422;-43
2022/05/09 09:14:57;;;;;;;7.03;6.43;;;19.10;99.90;;;;;;5016864;28;20427;-43
2022/05/09 09:17:41;;;;;;;8.20;7.40;;;19.20;99.90;;;;;;5058621;28;20420;-43
2022/05/09 09:20:22;;;;;;;8.57;7.07;;;19.30;99.90;;;;;;5061641;28;20411;-41
2022/05/09 09:23:16;;;;;;;8.23;6.80;;;19.50;99.90;;;;;;5068793;28;20801;-42
2022/05/09 09:26:25;;;;;;;7.73;6.33;;;19.60;99.90;;;;;;5068845;28;20407;-40
2022/05/09 09:28:59;;;;;;;7.33;6.57;;;19.80;99.90;;;;;;5042752;28;20457;-42
2022/05/09 09:31:29;;;;;;;7.43;6.37;;;20.00;99.90;;;;;;5057831;28;21193;-41
2022/05/09 09:34:15;;;;;;;8.10;7.30;;;20.10;99.90;;;;;;5069124;28;20428;-41
2022/05/09 09:36:52;;;;;;;8.10;7.37;;;20.30;99.90;;;;;;5064795;28;20415;-42
2022/05/09 09:39:19;;;;;;;12.70;7.20;;;20.40;99.90;;;;;;5079990;28;20421;-42
2022/05/09 09:41:47;;;;;;;7.80;7.03;;;20.50;99.90;;;;;;5090671;28;20426;-43
2022/05/09 09:44:13;;;;;;;7.53;6.57;;;20.70;99.90;;;;;;5092151;28;20433;-42
2022/05/09 09:47:04;;;;;;;9.47;6.87;;;20.80;99.80;;;;;;5067569;28;20427;-41
2022/05/09 09:49:32;;;;;;;8.90;7.53;;;20.80;99.70;;;;;;5068657;28;20454;-42
2022/05/09 09:51:58;;;;;;;8.10;6.73;;;20.90;99.20;;;;;;5072062;28;20790;-43
2022/05/09 09:54:30;;;;;;;8.27;7.47;;;20.90;99.30;;;;;;5072427;28;20434;-41
2022/05/09 09:56:56;;;;;;;9.30;7.80;;;21.10;99.90;;;;;;5058988;28;20271;-41
2022/05/09 09:59:24;;;;;;;7.30;6.63;;;21.20;99.00;;;;;;5072517;28;20533;-42
2022/05/09 10:02:16;;;;;;;7.77;7.00;;;21.30;99.10;;;;;;5058211;28;20439;-43
2022/05/09 10:04:43;;;;;;;7.57;6.83;;;21.40;99.20;;;;;;5070380;28;20546;-43
2022/05/09 10:07:33;;;;;;;9.03;8.13;;;21.40;98.70;;;;;;5072095;28;20433;-40
2022/05/09 10:10:07;;;;;;;8.20;6.73;;;21.50;98.70;;;;;;5071473;28;20453;-41
2022/05/09 10:12:34;;;;;;;7.20;6.60;;;21.50;98.50;;;;;;5071900;28;20412;-43
2022/05/09 10:15:02;;;;;;;8.40;7.70;;;21.40;98.50;;;;;;5071993;28;20476;-42
2022/05/09 10:17:31;;;;;;;10.37;8.20;;;21.40;98.00;;;;;;5060958;28;20534;-41
2022/05/09 10:19:58;;;;;;;9.40;7.87;;;21.40;98.10;;;;;;5063525;28;20420;-43
2022/05/09 10:25:28;;;;;;;8.87;8.00;;;21.50;97.90;;;;;;5071768;28;20419;-43
2022/05/09 10:28:12;;;;;;;8.10;7.40;;;21.60;98.40;;;;;;5071805;28;20505;-42
2022/05/09 10:30:41;;;;;;;9.53;8.57;;;21.70;98.40;;;;;;5068054;28;20482;-43
2022/05/09 10:33:19;;;;;;;7.70;6.87;;;21.80;97.90;;;;;;5065155;28;20442;-42
2022/05/09 10:35:55;;;;;;;10.83;7.37;;;21.80;98.50;;;;;;5071401;28;20469;-43
2022/05/09 10:38:35;;;;;;;10.00;8.33;;;22.00;99.40;;;;;;5071797;28;20941;-43
2022/05/09 10:41:13;;;;;;;8.17;7.20;;;22.20;98.40;;;;;;5078486;28;20426;-43
2022/05/09 10:44:09;;;;;;;10.03;6.27;;;22.40;99.10;;;;;;5091756;28;20418;-42
2022/05/09 10:46:47;;;;;;;7.70;7.00;;;22.50;98.30;;;;;;4983357;28;20451;-42
2022/05/09 10:49:26;;;;;;;7.27;6.67;;;22.60;99.10;;;;;;5071378;28;20455;-42
2022/05/09 10:52:04;;;;;;;8.10;7.17;;;22.70;98.70;;;;;;5070964;28;20422;-42
2022/05/09 10:54:37;;;;;;;6.97;6.27;;;22.90;98.80;;;;;;5070974;28;20419;-42
2022/05/09 10:57:14;;;;;;;7.57;6.97;;;22.90;98.50;;;;;;5071345;28;20534;-43
2022/05/09 10:59:42;;;;;;;7.73;6.13;;;22.90;97.70;;;;;;5070767;28;20522;-42
2022/05/09 11:02:26;;;;;;;8.40;6.90;;;22.80;98.10;;;;;;5065671;28;20435;-42
2022/05/09 11:04:52;;;;;;;7.23;6.63;;;22.80;98.70;;;;;;5070710;28;20757;-42
2022/05/09 11:07:35;;;;;;;10.17;8.13;;;22.80;98.60;;;;;;5071308;28;20483;-43
2022/05/09 11:10:43;;;;;;;9.33;7.00;;;22.90;98.00;;;;;;5070291;28;20214;-42
2022/05/09 11:13:08;;;;;;;6.43;5.80;;;23.00;98.50;;;;;;5071052;28;20411;-42
2022/05/09 11:16:09;;;;;;;7.33;6.60;;;23.10;97.00;;;;;;5069620;28;20420;-42
2022/05/09 11:18:38;;;;;;;8.73;6.00;;;23.20;95.50;;;;;;5063389;28;20181;-43
2022/05/09 11:21:12;;;;;;;6.43;5.80;;;23.30;95.40;;;;;;5070000;28;20596;-43
2022/05/09 11:23:53;;;;;;;7.10;5.90;;;23.40;95.90;;;;;;5070740;28;20471;-42
2022/05/09 11:26:57;;;;;;;7.23;6.53;;;23.50;94.80;;;;;;5070946;28;20430;-42
2022/05/09 11:29:44;;;;;;;6.47;5.93;;;23.50;95.00;;;;;;5049197;28;20455;-42
2022/05/09 11:32:19;;;;;;;8.53;7.80;;;23.50;94.40;;;;;;5061218;28;20457;-43
2022/05/09 11:35:07;;;;;;;10.37;7.20;;;23.50;93.90;;;;;;5070754;28;20771;-42
2022/05/09 11:37:44;;;;;;;7.93;7.13;;;23.50;93.70;;;;;;5058521;28;20415;-43
2022/05/09 11:40:21;;;;;;;7.60;6.43;;;23.60;93.50;;;;;;5079631;28;20407;-43
2022/05/09 11:43:29;;;;;;;11.77;7.60;;;23.50;91.80;;;;;;5089329;28;20453;-43
2022/05/09 11:46:05;;;;;;;7.40;6.13;;;23.40;92.50;;;;;;5074688;28;20449;-43
2022/05/09 11:48:31;;;;;;;6.10;5.50;;;23.40;93.10;;;;;;5062714;28;20415;-43
2022/05/09 11:51:15;;;;;;;7.27;5.83;;;23.50;94.40;;;;;;5069317;28;20974;-42
2022/05/09 11:53:48;;;;;;;8.20;6.03;;;23.60;94.40;;;;;;5057042;28;20447;-43
2022/05/09 11:56:14;;;;;;;6.50;5.90;;;23.80;94.30;;;;;;5070046;28;20913;-43
2022/05/09 11:58:43;;;;;;;7.10;6.50;;;23.80;92.90;;;;;;5070526;28;20419;-43
2022/05/09 12:01:09;;;;;;;7.67;6.97;;;23.80;92.60;;;;;;5066464;28;20974;-43
2022/05/09 12:03:41;;;;;;;6.83;6.23;;;23.80;92.90;;;;;;5062226;28;20464;-43
2022/05/09 12:06:13;;;;;;;6.87;6.17;;;23.70;92.60;;;;;;5069871;28;20434;-43
2022/05/09 12:08:47;;;;;;;6.20;5.60;;;23.60;93.10;;;;;;5070012;28;20427;-41
2022/05/09 12:11:25;;;;;;;6.20;5.70;;;23.60;93.00;;;;;;5069186;28;20502;-43
2022/05/09 12:13:53;;;;;;;6.40;5.80;;;23.70;94.30;;;;;;5069684;28;20449;-42
2022/05/09 12:16:37;;;;;;;7.03;5.33;;;23.80;92.10;;;;;;5066291;28;20452;-43
2022/05/09 12:19:19;;;;;;;6.63;5.90;;;23.90;92.40;;;;;;5064702;28;20419;-42
2022/05/09 12:22:17;;;;;;;6.27;5.77;;;23.90;91.50;;;;;;5067554;28;20836;-42
2022/05/09 12:24:44;;;;;;;5.57;5.07;;;24.00;94.10;;;;;;5056929;28;20442;-42
2022/05/09 12:27:45;;;;;;;5.90;5.40;;;24.00;92.40;;;;;;5069529;28;20929;-42
2022/05/09 12:30:49;;;;;;;6.70;6.00;;;24.10;92.70;;;;;;5068731;28;20493;-42
2022/05/09 12:33:24;;;;;;;7.67;5.67;;;24.20;92.70;;;;;;5060859;28;20433;-42
2022/05/09 12:35:54;;;;;;;10.57;6.20;;;24.30;91.20;;;;;;5069384;28;20442;-43
2022/05/09 12:38:26;;;;;;;5.83;5.30;;;24.30;90.80;;;;;;5069286;28;20454;-42
2022/05/09 12:41:13;;;;;;;6.00;5.37;;;24.20;90.70;;;;;;5067401;28;20447;-42
2022/05/09 12:43:44;;;;;;;4.80;4.50;;;24.20;91.20;;;;;;5084684;28;20934;-43
2022/05/09 12:46:20;;;;;;;6.37;5.53;;;24.10;91.30;;;;;;5067026;28;20431;-43
2022/05/09 12:48:46;;;;;;;6.33;5.20;;;24.20;90.60;;;;;;5076176;28;20420;-43
2022/05/09 12:51:13;;;;;;;7.73;5.70;;;24.20;90.90;;;;;;5068385;28;20519;-40
2022/05/09 12:53:40;;;;;;;6.20;5.60;;;24.30;91.10;;;;;;5055589;28;20196;-42
2022/05/09 12:56:28;;;;;;;6.60;6.00;;;24.20;89.80;;;;;;5068973;28;20442;-43
2022/05/09 12:59:06;;;;;;;6.07;5.57;;;24.20;89.80;;;;;;5089380;28;20446;-41
2022/05/09 13:01:32;;;;;;;6.30;5.80;;;24.30;90.80;;;;;;5080984;28;20432;-42
2022/05/09 13:04:05;;;;;;;5.20;4.70;;;24.30;90.30;;;;;;5061903;28;20962;-42
2022/05/09 13:06:37;;;;;;;5.67;5.17;;;24.30;89.70;;;;;;5069074;28;20502;-42
2022/05/09 13:09:22;;;;;;;5.90;5.30;;;24.30;90.60;;;;;;5068756;28;20431;-42
2022/05/09 13:11:52;;;;;;;5.97;5.40;;;24.40;91.20;;;;;;5068305;28;20407;-42
2022/05/09 13:14:23;;;;;;;5.07;4.57;;;24.50;88.70;;;;;;5068811;28;20434;-43